Time;durP1;ratioP1;P1;durP2;ratioP2;P2;SDS_P1;SDS_P2;PMS_P1;PMS_P2;Temp;Humidity;BMP_temperature;BMP_pressure;BME280_temperature;BME280_humidity;BME280_pressure;Samples;Min_cycle;Max_cycle;Signal;HPM_P1;HPM_P2
2022/02/14 00:03:52;;;;;;;8.15;3.10;;;7.80;99.90;;;;;;12618011;28;20072;-40
2022/02/14 00:09:54;;;;;;;10.90;3.05;;;7.80;99.90;;;;;;12626289;28;20044;-36
2022/02/14 00:15:57;;;;;;;8.18;2.80;;;7.70;99.90;;;;;;12624470;28;20138;-40
2022/02/14 00:21:58;;;;;;;9.73;3.13;;;7.60;99.90;;;;;;12623776;28;20143;-36
2022/02/14 00:28:00;;;;;;;9.95;3.08;;;7.90;99.90;;;;;;12623043;28;20105;-41
2022/02/14 00:34:02;;;;;;;7.85;2.78;;;7.80;99.90;;;;;;12623648;28;20102;-40
2022/02/14 00:40:05;;;;;;;5.45;2.40;;;7.80;99.90;;;;;;12624982;28;20101;-41
2022/02/14 00:46:07;;;;;;;6.32;2.78;;;7.90;99.90;;;;;;12624093;28;20071;-36
2022/02/14 00:52:09;;;;;;;5.85;2.88;;;7.70;99.90;;;;;;12623076;28;20121;-36
2022/02/14 00:58:11;;;;;;;8.50;3.10;;;7.80;99.90;;;;;;12623586;28;20056;-37
2022/02/14 01:04:14;;;;;;;7.13;2.47;;;7.80;99.90;;;;;;12623475;28;20171;-40
2022/02/14 01:10:16;;;;;;;6.57;3.00;;;7.80;99.90;;;;;;12625133;28;20043;-41
2022/02/14 01:16:19;;;;;;;6.88;3.03;;;7.60;99.90;;;;;;12622563;28;20539;-41
2022/02/14 01:22:20;;;;;;;6.75;2.88;;;7.60;99.90;;;;;;12622643;28;20060;-36
2022/02/14 01:28:22;;;;;;;8.23;2.92;;;7.50;99.90;;;;;;12623948;28;20044;-40
2022/02/14 01:34:24;;;;;;;5.60;2.70;;;7.40;99.90;;;;;;12612225;28;20420;-37
2022/02/14 01:40:26;;;;;;;12.43;3.35;;;7.30;99.90;;;;;;12623796;28;20047;-40
2022/02/14 01:46:28;;;;;;;9.80;3.70;;;7.30;99.90;;;;;;12622672;28;20105;-40
2022/02/14 01:52:35;;;;;;;7.30;3.00;;;7.10;99.90;;;;;;12622199;28;20484;-37
2022/02/14 01:58:37;;;;;;;5.93;2.85;;;7.00;99.90;;;;;;12624652;28;20056;-37
2022/02/14 02:04:42;;;;;;;8.38;3.10;;;7.10;99.90;;;;;;12617122;28;20199;-36
2022/02/14 02:10:44;;;;;;;8.20;3.00;;;7.00;99.90;;;;;;12620034;28;20056;-36
2022/02/14 02:16:46;;;;;;;8.00;2.65;;;7.10;99.90;;;;;;12621111;28;20507;-37
2022/02/14 02:22:50;;;;;;;5.28;2.50;;;7.10;99.90;;;;;;12624203;28;20446;-40
2022/02/14 02:28:52;;;;;;;6.75;3.30;;;7.00;99.90;;;;;;12599737;28;20047;-37
2022/02/14 02:34:54;;;;;;;7.97;3.20;;;7.00;99.90;;;;;;12619348;28;20055;-37
2022/02/14 02:40:56;;;;;;;9.68;3.20;;;7.10;99.90;;;;;;12611174;28;20051;-37
2022/02/14 02:46:59;;;;;;;10.88;2.92;;;7.10;99.90;;;;;;12619723;28;20560;-39
2022/02/14 02:53:01;;;;;;;5.50;2.60;;;7.10;99.90;;;;;;12620539;28;20074;-40
2022/02/14 02:59:04;;;;;;;6.32;2.65;;;7.00;99.90;;;;;;12616808;28;20052;-40
2022/02/14 03:05:06;;;;;;;5.57;2.75;;;7.00;99.90;;;;;;12616190;28;20102;-36
2022/02/14 03:11:08;;;;;;;8.80;2.90;;;7.10;99.90;;;;;;12618644;28;20055;-40
2022/02/14 03:17:11;;;;;;;6.25;2.65;;;7.00;99.90;;;;;;12616560;28;20091;-40
2022/02/14 03:23:17;;;;;;;7.47;2.75;;;6.90;99.90;;;;;;12617835;28;20087;-36
2022/02/14 03:29:19;;;;;;;9.30;3.25;;;6.90;99.90;;;;;;12616652;28;20092;-40
2022/02/14 03:35:21;;;;;;;7.20;2.90;;;6.90;99.90;;;;;;12614345;28;20044;-40
2022/02/14 03:41:23;;;;;;;6.18;2.42;;;7.00;99.90;;;;;;12615114;28;20537;-37
2022/02/14 03:47:25;;;;;;;4.97;2.53;;;6.90;99.90;;;;;;12615849;28;20098;-36
2022/02/14 03:53:27;;;;;;;6.95;2.60;;;7.00;99.90;;;;;;12618447;28;20842;-39
2022/02/14 03:59:30;;;;;;;10.88;3.00;;;7.00;99.90;;;;;;12617910;28;20086;-41
2022/02/14 04:05:31;;;;;;;9.68;3.05;;;7.00;99.90;;;;;;12615583;28;20378;-40
2022/02/14 04:11:33;;;;;;;8.38;2.83;;;6.90;99.90;;;;;;12616151;28;20048;-37
2022/02/14 04:17:37;;;;;;;10.55;3.03;;;6.80;99.90;;;;;;12596020;28;20142;-37
2022/02/14 04:23:39;;;;;;;6.18;3.17;;;6.70;99.90;;;;;;12616305;28;20052;-39
2022/02/14 04:29:41;;;;;;;8.73;3.30;;;6.60;99.90;;;;;;12615660;28;20056;-40
2022/02/14 04:35:43;;;;;;;9.90;3.10;;;6.50;99.90;;;;;;12616307;28;20557;-40
2022/02/14 04:41:45;;;;;;;8.63;2.90;;;6.40;99.90;;;;;;12613386;28;20048;-37
2022/02/14 04:47:47;;;;;;;7.13;2.92;;;6.40;99.90;;;;;;12615446;28;20048;-40
2022/02/14 04:53:49;;;;;;;10.55;3.50;;;6.40;99.90;;;;;;12621493;28;20667;-37
2022/02/14 04:59:51;;;;;;;9.18;2.90;;;6.40;99.90;;;;;;12628760;28;20503;-42
2022/02/14 05:05:53;;;;;;;8.13;2.80;;;6.40;99.90;;;;;;12622625;28;20060;-40
2022/02/14 05:11:55;;;;;;;8.00;2.90;;;6.40;99.90;;;;;;12622397;28;20044;-39
2022/02/14 05:17:57;;;;;;;7.13;3.05;;;6.40;99.90;;;;;;12622774;28;20112;-41
2022/02/14 05:23:59;;;;;;;6.90;3.13;;;6.30;99.90;;;;;;12621110;28;20488;-40
2022/02/14 05:30:02;;;;;;;7.38;2.78;;;6.30;99.90;;;;;;12624641;28;20076;-41
2022/02/14 05:36:04;;;;;;;7.00;2.45;;;6.40;99.90;;;;;;12619437;28;20500;-40
2022/02/14 05:42:07;;;;;;;8.30;3.00;;;6.40;99.90;;;;;;12623799;28;20130;-37
2022/02/14 05:48:09;;;;;;;5.90;2.33;;;6.40;99.90;;;;;;12622711;28;20078;-37
2022/02/14 05:54:11;;;;;;;10.95;2.85;;;6.60;99.90;;;;;;12621731;28;20044;-40
2022/02/14 06:00:13;;;;;;;6.75;2.45;;;6.60;99.90;;;;;;12603391;28;20052;-36
2022/02/14 06:06:15;;;;;;;4.53;2.15;;;6.90;99.90;;;;;;12621834;28;20040;-37
2022/02/14 06:12:17;;;;;;;8.43;2.60;;;6.90;99.90;;;;;;12617094;28;20044;-39
2022/02/14 06:18:19;;;;;;;6.13;2.42;;;7.00;99.90;;;;;;12615973;28;20048;-40
2022/02/14 06:24:21;;;;;;;5.97;2.30;;;7.10;99.90;;;;;;12612260;28;20511;-36
2022/02/14 06:30:23;;;;;;;7.60;2.20;;;7.20;99.90;;;;;;12613322;28;20488;-37
2022/02/14 06:36:29;;;;;;;5.60;2.90;;;7.20;99.90;;;;;;12619125;28;20055;-40
2022/02/14 06:42:31;;;;;;;8.57;2.33;;;7.00;99.90;;;;;;12614480;28;20496;-37
2022/02/14 06:48:33;;;;;;;6.55;2.40;;;7.00;99.90;;;;;;12618382;28;20545;-37
2022/02/14 06:54:35;;;;;;;7.60;2.60;;;7.00;99.90;;;;;;12613771;28;20051;-40
2022/02/14 07:00:37;;;;;;;3.30;1.77;;;7.00;99.90;;;;;;12614393;28;20492;-40
2022/02/14 07:06:39;;;;;;;6.20;2.40;;;7.10;99.90;;;;;;12615201;28;20048;-40
2022/02/14 07:12:42;;;;;;;6.47;2.17;;;7.30;99.90;;;;;;12615272;28;20507;-40
2022/02/14 07:18:44;;;;;;;5.70;2.25;;;7.40;99.90;;;;;;12621870;28;20134;-40
2022/02/14 07:24:46;;;;;;;7.38;2.03;;;7.60;99.90;;;;;;12619805;28;20077;-37
2022/02/14 07:30:50;;;;;;;5.45;2.08;;;7.80;99.90;;;;;;12619160;28;20365;-41
2022/02/14 07:36:53;;;;;;;4.45;1.95;;;8.00;99.90;;;;;;12615332;28;20174;-36
2022/02/14 07:42:55;;;;;;;5.45;2.08;;;8.10;99.90;;;;;;12613883;28;20060;-40
2022/02/14 07:48:57;;;;;;;6.05;2.47;;;8.10;99.90;;;;;;12618673;28;20560;-37
2022/02/14 07:54:58;;;;;;;4.60;1.75;;;8.30;99.90;;;;;;12616383;28;20053;-40
2022/02/14 08:01:00;;;;;;;7.00;2.00;;;8.30;99.90;;;;;;12615471;28;20145;-37
2022/02/14 08:07:04;;;;;;;5.40;1.80;;;8.30;99.90;;;;;;12614358;28;20078;-41
2022/02/14 08:13:07;;;;;;;4.15;1.73;;;8.30;99.90;;;;;;12591124;28;20659;-37
2022/02/14 08:19:09;;;;;;;5.25;1.98;;;8.40;99.90;;;;;;12610860;28;20044;-37
2022/02/14 08:25:11;;;;;;;4.05;1.65;;;8.50;99.90;;;;;;12587910;28;20054;-40
2022/02/14 08:31:13;;;;;;;5.57;1.63;;;8.90;99.90;;;;;;12613265;28;20578;-41
2022/02/14 08:37:15;;;;;;;3.97;1.80;;;9.00;99.90;;;;;;12617759;28;20097;-37
2022/02/14 08:43:17;;;;;;;5.50;1.65;;;9.00;99.90;;;;;;12618977;28;20127;-41
2022/02/14 08:49:37;;;;;;;5.22;1.65;;;8.90;99.90;;;;;;12619884;28;20076;-40
2022/02/14 08:55:40;;;;;;;5.05;1.70;;;9.50;99.90;;;;;;12618005;28;20081;-40
2022/02/14 09:01:42;;;;;;;4.25;1.48;;;9.80;99.90;;;;;;12620573;28;20112;-37
2022/02/14 09:07:44;;;;;;;4.00;1.40;;;9.90;99.90;;;;;;12619473;28;20041;-38
2022/02/14 09:13:46;;;;;;;6.55;1.63;;;9.70;99.90;;;;;;12613952;28;20163;-40
2022/02/14 09:19:48;;;;;;;6.32;1.80;;;9.60;99.90;;;;;;12613673;28;20058;-41
2022/02/14 09:25:50;;;;;;;4.97;1.40;;;9.60;99.90;;;;;;12615458;28;20082;-41
2022/02/14 09:31:53;;;;;;;5.13;1.80;;;9.80;99.90;;;;;;12610403;28;20143;-37
2022/02/14 09:37:58;;;;;;;6.20;1.60;;;9.90;99.90;;;;;;12608976;28;20048;-41
2022/02/14 09:44:01;;;;;;;;;;;9.90;99.90;;;;;;12615382;28;20424;-40
2022/02/14 09:50:05;;;;;;;7.43;1.65;;;10.00;99.90;;;;;;12607443;28;20634;-40
2022/02/14 09:56:12;;;;;;;3.45;1.38;;;10.10;99.90;;;;;;12609158;28;20055;-41
2022/02/14 10:02:24;;;;;;;5.38;1.50;;;10.10;99.90;;;;;;12615523;28;20052;-40
2022/02/14 10:08:31;;;;;;;5.10;1.38;;;10.30;99.90;;;;;;12611316;28;20048;-37
2022/02/14 10:14:34;;;;;;;2.78;1.45;;;10.30;99.90;;;;;;12603747;28;20477;-37
2022/02/14 10:20:37;;;;;;;4.70;1.60;;;10.30;99.90;;;;;;12606860;28;20556;-40
2022/02/14 10:26:42;;;;;;;3.65;1.23;;;10.40;99.90;;;;;;12611720;28;20052;-40
2022/02/14 10:32:52;;;;;;;4.82;1.40;;;10.40;99.90;;;;;;12613652;28;20051;-37
2022/02/14 10:38:56;;;;;;;10.23;1.40;;;10.50;99.90;;;;;;12614818;28;20055;-41
2022/02/14 10:45:09;;;;;;;3.20;1.17;;;10.60;99.90;;;;;;12613036;28;20158;-38
2022/02/14 10:51:19;;;;;;;5.88;1.83;;;10.80;99.90;;;;;;12611410;28;20056;-41
2022/02/14 10:57:31;;;;;;;2.70;1.33;;;10.90;99.90;;;;;;12614864;28;20404;-41
2022/02/14 11:03:33;;;;;;;6.30;1.40;;;10.90;99.90;;;;;;12610757;28;20040;-37
2022/02/14 11:09:37;;;;;;;4.03;1.38;;;10.80;99.90;;;;;;12610534;28;20052;-41
2022/02/14 11:15:44;;;;;;;4.28;1.58;;;10.70;99.90;;;;;;12610079;28;20515;-41
2022/02/14 11:21:48;;;;;;;3.75;1.45;;;10.70;99.90;;;;;;12606022;28;20044;-41
2022/02/14 11:28:10;;;;;;;4.15;1.45;;;10.80;99.90;;;;;;12611314;28;20051;-37
2022/02/14 11:34:12;;;;;;;5.57;1.60;;;10.80;99.90;;;;;;12613448;28;20075;-37
2022/02/14 11:40:35;;;;;;;4.18;1.48;;;10.80;99.90;;;;;;12589481;28;20048;-40
2022/02/14 11:46:43;;;;;;;4.25;1.60;;;10.90;99.90;;;;;;12610745;28;20052;-40
2022/02/14 11:52:47;;;;;;;5.65;1.65;;;10.90;99.90;;;;;;12603916;28;20059;-40
2022/02/14 11:59:13;;;;;;;6.97;2.35;;;10.80;99.90;;;;;;12608605;28;20481;-37
2022/02/14 12:05:57;;;;;;;3.42;1.50;;;10.70;99.90;;;;;;12609745;28;20063;-38
2022/02/14 12:11:59;;;;;;;3.40;1.42;;;10.60;99.90;;;;;;12610907;28;20092;-40
2022/02/14 12:24:38;;;;;;;4.07;1.58;;;10.60;99.90;;;;;;12602324;28;20048;-37
2022/02/14 12:30:42;;;;;;;5.05;1.40;;;10.90;99.90;;;;;;12592461;28;20094;-40
2022/02/14 12:36:51;;;;;;;3.65;1.63;;;10.90;99.90;;;;;;12601970;28;20097;-40
2022/02/14 12:43:00;;;;;;;4.05;1.30;;;10.70;99.90;;;;;;12606475;28;20293;-37
2022/02/14 12:49:08;;;;;;;3.00;1.35;;;10.50;99.90;;;;;;12608866;28;20044;-40
2022/02/14 12:55:11;;;;;;;2.92;1.40;;;10.50;99.90;;;;;;12609939;28;20128;-42
2022/02/14 13:01:13;;;;;;;4.03;1.50;;;10.50;99.90;;;;;;12579327;28;20084;-37
2022/02/14 13:07:16;;;;;;;4.05;1.40;;;10.60;99.90;;;;;;12600706;28;20048;-37
2022/02/14 13:13:31;;;;;;;4.63;1.30;;;10.80;99.90;;;;;;12606555;28;20120;-40
2022/02/14 13:19:35;;;;;;;4.85;1.70;;;10.90;99.90;;;;;;12618161;28;20094;-37
2022/02/14 13:25:51;;;;;;;4.07;1.13;;;11.40;99.90;;;;;;12613114;28;20469;-37
2022/02/14 13:31:53;;;;;;;4.40;1.30;;;11.40;99.90;;;;;;12615029;28;20108;-37
2022/02/14 13:37:58;;;;;;;3.83;1.25;;;11.50;99.90;;;;;;12594299;28;20048;-37
2022/02/14 13:44:09;;;;;;;3.45;1.55;;;11.30;99.90;;;;;;12611985;28;20048;-37
2022/02/14 13:50:22;;;;;;;5.82;1.75;;;11.40;99.90;;;;;;12614709;28;20558;-37
2022/02/14 13:56:25;;;;;;;2.92;1.70;;;11.70;99.90;;;;;;12615203;28;20513;-40
2022/02/14 14:02:27;;;;;;;2.90;1.95;;;11.30;99.90;;;;;;12612819;28;20075;-41
2022/02/14 14:08:46;;;;;;;3.33;1.30;;;11.20;99.90;;;;;;12612423;28;20052;-40
2022/02/14 14:14:55;;;;;;;2.20;1.10;;;11.50;99.90;;;;;;12610789;28;20054;-40
2022/02/14 14:21:12;;;;;;;4.57;0.98;;;11.70;99.90;;;;;;12609708;28;20047;-40
2022/02/14 14:27:14;;;;;;;2.35;1.10;;;11.40;99.90;;;;;;12608723;28;20423;-40
2022/02/14 14:33:16;;;;;;;4.18;1.00;;;11.30;99.90;;;;;;12608671;28;20040;-37
2022/02/14 14:39:18;;;;;;;2.13;0.90;;;11.20;99.90;;;;;;12609539;28;20052;-37
2022/02/14 14:45:23;;;;;;;4.43;1.00;;;11.10;99.90;;;;;;12607816;28;20098;-40
2022/02/14 14:51:25;;;;;;;1.77;0.82;;;11.00;99.90;;;;;;12607365;28;20036;-38
2022/02/14 14:57:27;;;;;;;2.10;1.00;;;11.00;99.90;;;;;;12605263;28;21218;-40
2022/02/14 15:03:29;;;;;;;1.70;1.02;;;10.80;99.90;;;;;;12604367;28;20054;-37
2022/02/14 15:09:31;;;;;;;4.28;1.20;;;10.80;99.90;;;;;;12584256;28;20048;-37
2022/02/14 15:15:33;;;;;;;3.40;1.30;;;10.90;99.90;;;;;;12602755;28;20474;-42
2022/02/14 15:21:37;;;;;;;1.90;1.00;;;10.70;99.90;;;;;;12592620;28;20109;-40
2022/02/14 15:27:39;;;;;;;4.57;1.02;;;10.50;99.90;;;;;;12599300;28;20048;-37
2022/02/14 15:33:41;;;;;;;5.72;1.10;;;10.40;99.90;;;;;;12595625;28;20368;-40
2022/02/14 15:39:43;;;;;;;6.03;1.33;;;10.30;99.90;;;;;;12605431;28;20087;-40
2022/02/14 15:45:45;;;;;;;2.83;1.15;;;10.10;99.90;;;;;;12601549;28;20073;-37
2022/02/14 15:51:47;;;;;;;3.40;1.10;;;9.90;99.90;;;;;;12603698;28;20058;-40
2022/02/14 15:57:49;;;;;;;2.00;1.02;;;9.80;99.90;;;;;;12609037;28;20078;-40
2022/02/14 16:03:51;;;;;;;3.35;0.80;;;9.90;99.90;;;;;;12609547;28;20429;-37
2022/02/14 16:09:53;;;;;;;1.35;0.57;;;9.70;99.90;;;;;;12605932;28;20097;-41
2022/02/14 16:15:55;;;;;;;4.70;0.88;;;9.70;99.90;;;;;;12605631;28;20101;-37
2022/02/14 16:21:58;;;;;;;2.65;0.90;;;9.50;99.90;;;;;;12581882;28;20094;-37
2022/02/14 16:28:00;;;;;;;3.70;0.98;;;9.30;99.90;;;;;;12603492;28;20070;-40
2022/02/14 16:34:03;;;;;;;3.58;0.77;;;9.20;99.90;;;;;;12602632;28;20135;-40
2022/02/14 16:40:06;;;;;;;3.00;0.70;;;9.00;99.90;;;;;;12606526;28;20113;-37
2022/02/14 16:46:08;;;;;;;3.53;1.20;;;9.10;99.90;;;;;;12609969;28;20613;-40
2022/02/14 16:52:10;;;;;;;2.80;1.13;;;9.10;99.90;;;;;;12611071;28;20052;-40
2022/02/14 16:58:13;;;;;;;2.95;1.02;;;9.00;99.90;;;;;;12615907;28;20044;-40
2022/02/14 17:04:17;;;;;;;5.90;1.08;;;9.00;99.90;;;;;;12613240;28;20454;-42
2022/02/14 17:10:19;;;;;;;7.97;1.70;;;8.90;99.90;;;;;;12614513;28;21096;-38
2022/02/14 17:16:21;;;;;;;6.30;1.42;;;8.90;99.90;;;;;;12615158;28;20137;-37
2022/02/14 17:22:23;;;;;;;3.30;1.10;;;8.80;99.90;;;;;;12614925;28;20052;-40
2022/02/14 17:28:25;;;;;;;5.32;1.50;;;8.80;99.90;;;;;;12615668;28;20109;-40
2022/02/14 17:34:27;;;;;;;4.28;1.05;;;8.80;99.90;;;;;;12613194;28;20044;-41
2022/02/14 17:40:30;;;;;;;3.17;1.38;;;8.70;99.90;;;;;;12595984;28;20101;-36
2022/02/14 17:46:32;;;;;;;3.47;1.45;;;8.60;99.90;;;;;;12616572;28;20052;-41
2022/02/14 17:52:34;;;;;;;5.22;1.55;;;8.50;99.90;;;;;;12611923;28;20051;-38
2022/02/14 17:58:43;;;;;;;4.28;1.48;;;8.60;99.90;;;;;;12611209;28;20516;-40
2022/02/14 18:04:45;;;;;;;4.55;1.45;;;8.60;99.90;;;;;;12606452;28;20056;-37
2022/02/14 18:10:48;;;;;;;5.45;1.60;;;8.60;99.90;;;;;;12589182;28;20199;-40
2022/02/14 18:16:50;;;;;;;6.07;1.30;;;8.60;99.90;;;;;;12591180;28;20094;-37
2022/02/14 18:22:52;;;;;;;7.13;1.40;;;8.50;99.90;;;;;;12593921;28;20047;-37
2022/02/14 18:28:56;;;;;;;3.53;1.70;;;8.40;99.90;;;;;;12597926;28;20105;-40
2022/02/14 18:34:59;;;;;;;5.85;1.40;;;8.20;99.90;;;;;;12604663;28;20092;-37
2022/02/14 18:41:01;;;;;;;5.90;1.70;;;8.20;99.90;;;;;;12593874;28;20054;-40
2022/02/14 18:47:06;;;;;;;3.83;1.15;;;8.20;99.90;;;;;;12585488;28;20139;-37
2022/02/14 18:53:08;;;;;;;4.07;1.55;;;8.10;99.90;;;;;;12607891;28;20048;-37
2022/02/14 18:59:10;;;;;;;5.55;1.33;;;8.10;99.90;;;;;;12610214;28;20064;-40
2022/02/14 19:05:11;;;;;;;5.80;1.38;;;8.20;99.90;;;;;;12611613;28;20610;-42
2022/02/14 19:11:13;;;;;;;3.15;1.00;;;8.10;99.90;;;;;;12609263;28;20167;-41
2022/02/14 19:17:16;;;;;;;4.95;1.10;;;8.10;99.90;;;;;;12610606;28;20079;-41
2022/02/14 19:23:20;;;;;;;3.53;1.13;;;8.20;99.90;;;;;;12610883;28;20579;-42
2022/02/14 19:29:22;;;;;;;5.30;1.27;;;8.10;99.90;;;;;;12594184;28;20046;-40
2022/02/14 19:35:25;;;;;;;4.90;1.25;;;8.00;99.90;;;;;;12611491;28;20131;-40
2022/02/14 19:41:31;;;;;;;4.15;1.23;;;8.00;99.90;;;;;;12609243;28;20048;-40
2022/02/14 19:47:33;;;;;;;5.38;1.50;;;7.90;99.90;;;;;;12610043;28;20084;-41
2022/02/14 19:53:36;;;;;;;9.55;1.85;;;7.90;99.90;;;;;;12612182;28;20466;-37
2022/02/14 19:59:38;;;;;;;3.70;1.55;;;7.70;99.90;;;;;;12608344;28;20114;-40
2022/02/14 20:05:40;;;;;;;5.35;1.40;;;7.70;99.90;;;;;;12605403;28;20162;-38
2022/02/14 20:11:43;;;;;;;5.88;1.50;;;7.70;99.90;;;;;;12609179;28;20052;-37
2022/02/14 20:17:46;;;;;;;4.32;1.25;;;7.80;99.90;;;;;;12610250;28;20064;-37
2022/02/14 20:23:48;;;;;;;6.88;1.95;;;7.70;99.90;;;;;;12614646;28;20138;-40
2022/02/14 20:29:50;;;;;;;5.57;1.38;;;7.70;99.90;;;;;;12617170;28;20540;-40
2022/02/14 20:35:53;;;;;;;6.63;1.58;;;7.80;99.90;;;;;;12616749;28;20044;-38
2022/02/14 20:41:56;;;;;;;5.20;1.20;;;7.80;99.90;;;;;;12618558;28;20052;-38
2022/02/14 20:47:57;;;;;;;6.65;1.42;;;7.70;99.90;;;;;;12617062;28;20062;-40
2022/02/14 20:53:59;;;;;;;7.13;1.30;;;7.60;99.90;;;;;;12617389;28;20139;-37
2022/02/14 21:00:02;;;;;;;4.80;1.20;;;7.60;99.90;;;;;;12614428;28;20081;-40
2022/02/14 21:06:04;;;;;;;6.45;1.33;;;7.40;99.90;;;;;;12618194;28;20307;-40
2022/02/14 21:12:06;;;;;;;5.80;1.33;;;7.30;99.90;;;;;;12614766;28;20063;-40
2022/02/14 21:18:09;;;;;;;10.03;2.10;;;7.20;99.90;;;;;;12616982;28;20047;-37
2022/02/14 21:24:11;;;;;;;6.97;1.38;;;7.30;99.90;;;;;;12615745;28;20056;-41
2022/02/14 21:30:31;;;;;;;3.97;1.33;;;7.20;99.90;;;;;;12613953;28;20048;-37
2022/02/14 21:36:33;;;;;;;6.65;2.15;;;7.10;99.90;;;;;;12617332;28;20130;-36
2022/02/14 21:42:35;;;;;;;3.60;1.73;;;7.00;99.90;;;;;;12613733;28;20047;-37
2022/02/14 21:48:37;;;;;;;6.10;2.00;;;7.00;99.90;;;;;;12612323;28;20108;-40
2022/02/14 21:54:41;;;;;;;8.48;1.88;;;7.10;99.90;;;;;;12611730;28;20048;-40
2022/02/14 22:00:43;;;;;;;5.17;1.43;;;7.00;99.90;;;;;;12610743;28;20051;-41
2022/02/14 22:13:05;;;;;;;8.50;1.70;;;6.80;99.90;;;;;;12612174;28;20040;-40
2022/02/14 22:19:07;;;;;;;6.32;1.70;;;6.70;99.90;;;;;;12611427;28;20083;-40
2022/02/14 22:25:09;;;;;;;4.90;1.65;;;6.60;99.90;;;;;;12610321;28;20083;-41
2022/02/14 22:31:11;;;;;;;8.70;2.00;;;6.60;99.90;;;;;;12592327;28;20048;-37
2022/02/14 22:37:13;;;;;;;8.40;2.05;;;6.60;99.90;;;;;;12607519;28;20058;-36
2022/02/14 22:43:15;;;;;;;4.93;1.70;;;6.60;99.90;;;;;;12609654;28;20472;-37
2022/02/14 22:49:18;;;;;;;6.57;2.00;;;6.60;99.90;;;;;;12609717;28;20123;-37
2022/02/14 22:55:20;;;;;;;4.18;1.60;;;6.60;99.90;;;;;;12608873;28;20056;-37
2022/02/14 23:02:56;;;;;;;7.18;1.85;;;6.60;99.90;;;;;;12607868;28;20497;-40
2022/02/14 23:14:12;;;;;;;8.60;1.90;;;6.70;99.90;;;;;;12607132;28;19928;-40
2022/02/14 23:20:14;;;;;;;8.15;1.70;;;6.60;99.90;;;;;;12607568;28;20516;-37
2022/02/14 23:26:16;;;;;;;8.68;1.83;;;6.60;99.90;;;;;;12608754;28;20105;-40
2022/02/14 23:32:19;;;;;;;6.10;1.67;;;6.70;99.90;;;;;;12607277;28;20465;-36
2022/02/14 23:38:21;;;;;;;11.88;2.00;;;6.60;99.90;;;;;;12607941;28;20134;-40
2022/02/14 23:44:23;;;;;;;9.60;1.85;;;6.60;99.90;;;;;;12610120;28;20104;-40
2022/02/14 23:50:25;;;;;;;6.05;1.80;;;6.60;99.90;;;;;;12606294;28;20047;-36
2022/02/14 23:56:27;;;;;;;10.50;2.00;;;6.60;99.90;;;;;;12607973;28;20086;-39
